F/V Canto Nuevo — EBVH — position and weather

sailwx.info

Track history (hours):
 
Tides and Currents Weather Stations Pressure Air Temp Water Temp Dewpoint Dewpoint Depression Visibility Wind Speed Wind Dir Waves Ship Positions

F/V Canto Nuevo

Last reported at 2017-Sep-01 16:51 UTC. Time now 2017-Sep-21 16:16 UTC.
Position N 43°44' W 006°00'.
Warning: this ship's position is 19 days out of date.

Length 26 m; draft 4 m.

Type: Fishing. MMSI: 224045260.

Date/timePositionNaut miles runAvg speedWind from/ knotsBaromVisibWave heightAir tempDewpointWater temp
2017-Sep-01 16:51N 43°44' W 006°00'  
2017-Aug-24 07:13N 46°18' W 004°19'1 0.7
2017-Aug-24 06:17N 46°19' W 004°18'0 0.1
2017-Aug-24 04:47N 46°19' W 004°18'10 2.2
2017-Aug-24 00:23N 46°20' W 004°32'0 0.9
2017-Aug-23 23:55N 46°20' W 004°32'0 0.3
2017-Aug-23 22:41N 46°20' W 004°31'3 0.8
2017-Aug-23 19:13N 46°21' W 004°27'1 0.7
2017-Aug-23 18:20N 46°21' W 004°27'0 0.6
2017-Aug-23 17:56N 46°21' W 004°27'0 0.8
2017-Aug-23 17:21N 46°20' W 004°26'1 0.8
2017-Aug-23 16:29N 46°20' W 004°25'0 0.9
2017-Aug-23 15:59N 46°20' W 004°24'0 0.6
2017-Aug-23 15:26N 46°20' W 004°24'3 6.2
2017-Aug-23 14:57N 46°20' W 004°20'2 3.1
2017-Aug-23 14:19N 46°19' W 004°17'1 0.6
2017-Aug-23 13:30N 46°18' W 004°17'  
Track history (hours):
 
Tides and Currents Weather Stations Pressure Air Temp Water Temp Dewpoint Dewpoint Depression Visibility Wind Speed Wind Dir Waves Ship Positions

F/V Canto Nuevo

Last reported at 2017-Sep-01 16:51 UTC. Time now 2017-Sep-21 16:16 UTC.
Position N 43°44' W 006°00'.
Warning: this ship's position is 19 days out of date.

Length 26 m; draft 4 m.

Type: Fishing. MMSI: 224045260.

Date/timePositionNaut miles runAvg speedWind from/ knotsBaromVisibWave heightAir tempDewpointWater temp
2017-Sep-01 16:51N 43°44' W 006°00'  
2017-Aug-24 07:13N 46°18' W 004°19'1 0.7
2017-Aug-24 06:17N 46°19' W 004°18'0 0.1
2017-Aug-24 04:47N 46°19' W 004°18'10 2.2
2017-Aug-24 00:23N 46°20' W 004°32'0 0.9
2017-Aug-23 23:55N 46°20' W 004°32'0 0.3
2017-Aug-23 22:41N 46°20' W 004°31'3 0.8
2017-Aug-23 19:13N 46°21' W 004°27'1 0.7
2017-Aug-23 18:20N 46°21' W 004°27'0 0.6
2017-Aug-23 17:56N 46°21' W 004°27'0 0.8
2017-Aug-23 17:21N 46°20' W 004°26'1 0.8
2017-Aug-23 16:29N 46°20' W 004°25'0 0.9
2017-Aug-23 15:59N 46°20' W 004°24'0 0.6
2017-Aug-23 15:26N 46°20' W 004°24'3 6.2
2017-Aug-23 14:57N 46°20' W 004°20'2 3.1
2017-Aug-23 14:19N 46°19' W 004°17'1 0.6
2017-Aug-23 13:30N 46°18' W 004°17'  

Dump ship's entire track history